createdAt,value
2018-03-24T00:01:35.772Z,22.23
2018-03-24T00:04:03.182Z,21.63
2018-03-24T00:06:30.564Z,22.30
2018-03-24T00:08:57.948Z,22.03
2018-03-24T00:11:25.349Z,22.13
2018-03-24T00:13:52.721Z,20.83
2018-03-24T00:16:20.104Z,21.27
2018-03-24T00:18:47.496Z,21.17
2018-03-24T00:21:14.872Z,21.70
2018-03-24T00:23:42.253Z,20.73
2018-03-24T00:26:09.648Z,20.53
2018-03-24T00:28:37.025Z,21.37
2018-03-24T00:31:04.411Z,21.37
2018-03-24T00:33:31.808Z,20.73
2018-03-24T00:35:59.185Z,21.10
2018-03-24T00:38:26.560Z,20.40
2018-03-24T00:40:53.950Z,22.53
2018-03-24T00:43:21.332Z,24.63
2018-03-24T00:45:48.709Z,22.23
2018-03-24T00:48:16.096Z,23.93
2018-03-24T00:50:43.618Z,22.53
2018-03-24T00:53:10.992Z,21.73
2018-03-24T00:55:38.384Z,24.93
2018-03-24T00:58:05.778Z,23.52
2018-03-24T01:00:33.156Z,23.23
2018-03-24T01:03:00.548Z,24.23
2018-03-24T01:05:27.936Z,24.70
2018-03-24T01:07:55.316Z,24.67
2018-03-24T01:10:22.709Z,24.67
2018-03-24T01:12:50.090Z,24.93
2018-03-24T01:15:17.465Z,22.73
2018-03-24T01:17:44.867Z,23.77
2018-03-24T01:20:12.241Z,25.37
2018-03-24T01:22:39.618Z,23.90
2018-03-24T01:25:07.004Z,23.80
2018-03-24T01:27:34.381Z,24.23
2018-03-24T01:30:01.762Z,24.57
2018-03-24T01:32:29.167Z,24.37
2018-03-24T01:34:56.553Z,23.20
2018-03-24T01:37:23.941Z,26.02
2018-03-24T01:39:51.332Z,24.10
2018-03-24T01:42:18.721Z,25.80
2018-03-24T01:44:46.109Z,24.77
2018-03-24T01:47:13.525Z,24.45
2018-03-24T01:49:40.910Z,25.30
2018-03-24T01:52:08.298Z,25.98
2018-03-24T01:54:35.713Z,25.77
2018-03-24T01:57:03.096Z,30.20
2018-03-24T01:59:30.492Z,25.90
2018-03-24T02:01:57.884Z,26.25
2018-03-24T02:04:25.268Z,25.98
2018-03-24T02:06:52.670Z,28.00
2018-03-24T02:09:20.057Z,26.33
2018-03-24T02:11:47.451Z,26.20
2018-03-24T02:14:14.848Z,31.60
2018-03-24T02:16:42.232Z,27.08
2018-03-24T02:19:09.620Z,32.05
2018-03-24T02:21:37.956Z,26.35
2018-03-24T02:24:05.340Z,25.85
2018-03-24T02:26:32.736Z,28.67
2018-03-24T02:29:00.135Z,28.23
2018-03-24T02:31:27.520Z,30.15
2018-03-24T02:33:54.920Z,30.67
2018-03-24T02:36:22.325Z,32.53
2018-03-24T02:38:49.716Z,31.50
2018-03-24T02:41:17.117Z,28.60
2018-03-24T02:43:44.524Z,28.95
2018-03-24T02:46:11.914Z,29.00
2018-03-24T02:48:39.305Z,33.10
2018-03-24T02:51:06.708Z,33.00
2018-03-24T02:53:34.097Z,30.98
2018-03-24T02:56:01.496Z,31.98
2018-03-24T02:58:28.890Z,30.08
2018-03-24T03:00:56.277Z,29.37
2018-03-24T03:03:23.660Z,31.52
2018-03-24T03:05:51.145Z,33.15
2018-03-24T03:08:18.533Z,30.50
2018-03-24T03:10:45.928Z,31.33
2018-03-24T03:13:13.329Z,29.98
2018-03-24T03:15:40.720Z,30.67
2018-03-24T03:18:08.137Z,31.52
2018-03-24T03:20:35.504Z,33.10
2018-03-24T03:23:02.892Z,31.55
2018-03-24T03:25:30.287Z,31.48
2018-03-24T03:27:57.713Z,31.55
2018-03-24T03:33:29.828Z,29.20
2018-03-24T03:35:57.243Z,30.37
2018-03-24T03:38:24.632Z,29.20
2018-03-24T03:40:52.013Z,28.98
2018-03-24T03:43:19.410Z,30.35
2018-03-24T03:45:46.793Z,34.22
2018-03-24T03:48:14.470Z,30.92
2018-03-24T03:50:41.852Z,29.33
2018-03-24T03:53:09.242Z,29.05
2018-03-24T03:55:36.644Z,30.83
2018-03-24T03:58:04.552Z,29.98
2018-03-24T04:00:31.949Z,30.73
2018-03-24T04:02:59.351Z,29.48
2018-03-24T04:05:26.737Z,29.80
2018-03-24T04:07:54.136Z,30.92
2018-03-24T04:10:21.529Z,29.20
2018-03-24T04:12:48.921Z,29.87
2018-03-24T04:15:16.312Z,29.58
2018-03-24T04:17:43.704Z,29.17
2018-03-24T04:20:11.092Z,27.65
2018-03-24T04:22:38.489Z,28.25
2018-03-24T04:25:05.884Z,29.48
2018-03-24T04:27:33.287Z,28.65
2018-03-24T04:30:00.676Z,29.50
2018-03-24T04:32:28.065Z,31.77
2018-03-24T04:34:55.464Z,29.37
2018-03-24T04:37:22.849Z,29.27
2018-03-24T04:39:50.266Z,26.55
2018-03-24T04:42:17.661Z,26.27
2018-03-24T04:44:45.037Z,31.35
2018-03-24T04:47:12.433Z,31.75
2018-03-24T04:49:39.817Z,30.90
2018-03-24T04:52:07.237Z,29.87
2018-03-24T04:54:34.641Z,31.40
2018-03-24T04:57:02.021Z,28.67
2018-03-24T04:59:29.416Z,30.77
2018-03-24T05:01:56.803Z,31.00
2018-03-24T05:04:24.196Z,31.00
2018-03-24T05:06:51.593Z,32.30
2018-03-24T05:09:18.993Z,28.42
2018-03-24T05:11:46.377Z,33.97
2018-03-24T05:14:13.774Z,31.60
2018-03-24T05:16:41.482Z,31.65
2018-03-24T05:19:08.883Z,35.50
2018-03-24T05:21:36.264Z,31.80
2018-03-24T05:24:03.656Z,31.17
2018-03-24T05:26:31.062Z,30.80
2018-03-24T05:28:58.456Z,32.20
2018-03-24T05:31:25.858Z,33.63
2018-03-24T05:33:53.247Z,29.67
2018-03-24T05:36:20.632Z,31.73
2018-03-24T05:38:48.017Z,32.33
2018-03-24T05:41:15.429Z,31.67
2018-03-24T05:43:42.821Z,29.35
2018-03-24T05:46:10.217Z,37.97
2018-03-24T05:48:37.676Z,31.40
2018-03-24T05:51:04.985Z,34.30
2018-03-24T05:53:32.372Z,35.17
2018-03-24T05:55:59.845Z,38.60
2018-03-24T05:58:27.224Z,35.53
2018-03-24T06:00:54.616Z,35.97
2018-03-24T06:03:22.020Z,35.93
2018-03-24T06:05:49.412Z,33.70
2018-03-24T06:08:16.788Z,33.47
2018-03-24T06:10:44.196Z,34.40
2018-03-24T06:13:11.570Z,34.40
2018-03-24T06:15:38.951Z,31.53
2018-03-24T06:18:06.328Z,35.13
2018-03-24T06:20:33.720Z,36.20
2018-03-24T06:23:01.108Z,34.70
2018-03-24T06:25:28.519Z,34.87
2018-03-24T06:27:55.900Z,31.53
2018-03-24T06:30:25.816Z,34.27
2018-03-24T06:32:53.229Z,31.40
2018-03-24T06:35:20.603Z,35.93
2018-03-24T06:37:47.993Z,39.10
2018-03-24T06:40:15.383Z,36.40
2018-03-24T06:42:42.765Z,37.83
2018-03-24T06:45:10.177Z,33.87
2018-03-24T06:47:37.560Z,40.20
2018-03-24T06:50:04.936Z,42.60
2018-03-24T06:52:33.049Z,39.00
2018-03-24T06:55:00.424Z,34.93
2018-03-24T06:57:27.821Z,34.40
2018-03-24T06:59:55.874Z,35.03
2018-03-24T07:02:23.236Z,33.50
2018-03-24T07:04:50.685Z,36.90
2018-03-24T07:07:18.068Z,33.17
2018-03-24T07:09:45.493Z,35.73
2018-03-24T07:12:13.244Z,38.57
2018-03-24T07:14:40.645Z,40.83
2018-03-24T07:17:08.057Z,36.03
2018-03-24T07:19:35.456Z,34.80
2018-03-24T07:22:02.848Z,35.93
2018-03-24T07:24:30.240Z,34.30
2018-03-24T07:26:57.645Z,33.30
2018-03-24T07:29:25.060Z,35.63
2018-03-24T07:31:52.457Z,37.37
2018-03-24T07:34:19.900Z,37.67
2018-03-24T07:36:47.298Z,40.53
2018-03-24T07:39:14.715Z,33.43
2018-03-24T07:41:42.111Z,33.10
2018-03-24T07:44:09.538Z,37.43
2018-03-24T07:46:36.929Z,37.67
2018-03-24T07:49:04.385Z,42.00
2018-03-24T07:51:31.812Z,37.70
2018-03-24T07:53:59.182Z,37.80
2018-03-24T07:56:26.564Z,34.07
2018-03-24T07:58:53.952Z,38.10
2018-03-24T08:01:21.346Z,32.30
2018-03-24T08:03:48.724Z,29.90
2018-03-24T08:06:16.136Z,29.67
2018-03-24T08:08:43.512Z,33.90
2018-03-24T08:11:10.901Z,32.10
2018-03-24T08:13:38.301Z,30.73
2018-03-24T08:16:05.713Z,32.17
2018-03-24T08:18:33.156Z,29.43
2018-03-24T08:21:00.525Z,30.07
2018-03-24T08:23:27.954Z,31.70
2018-03-24T08:25:55.329Z,33.57
2018-03-24T08:28:22.713Z,31.07
2018-03-24T08:30:50.121Z,28.10
2018-03-24T08:33:17.549Z,30.37
2018-03-24T08:35:45.004Z,26.57
2018-03-24T08:38:12.404Z,32.07
2018-03-24T08:40:39.814Z,29.53
2018-03-24T08:43:07.210Z,26.60
2018-03-24T08:45:34.600Z,29.03
2018-03-24T08:48:02.005Z,28.10
2018-03-24T08:50:29.378Z,29.43
2018-03-24T08:52:56.885Z,28.33
2018-03-24T08:55:24.243Z,29.67
2018-03-24T08:57:51.609Z,27.43
2018-03-24T09:00:19.028Z,29.63
2018-03-24T09:02:46.393Z,28.47
2018-03-24T09:05:13.779Z,29.23
2018-03-24T09:07:41.156Z,26.37
2018-03-24T09:10:08.541Z,26.87
2018-03-24T09:12:35.941Z,25.90
2018-03-24T09:15:03.386Z,27.73
2018-03-24T09:17:30.714Z,27.50
2018-03-24T09:19:58.096Z,26.30
2018-03-24T09:22:25.520Z,36.53
2018-03-24T09:24:52.915Z,29.80
2018-03-24T09:27:20.310Z,25.90
2018-03-24T09:29:47.693Z,27.40
2018-03-24T09:32:15.082Z,26.93
2018-03-24T09:34:42.473Z,29.23
2018-03-24T09:37:09.879Z,32.97
2018-03-24T09:39:37.273Z,27.47
2018-03-24T09:42:04.685Z,26.17
2018-03-24T09:44:32.093Z,28.33
2018-03-24T09:46:59.495Z,28.83
2018-03-24T09:49:26.961Z,28.27
2018-03-24T09:51:54.348Z,27.80
2018-03-24T09:54:21.736Z,27.30
2018-03-24T09:56:49.116Z,27.37
2018-03-24T09:59:16.542Z,27.40
2018-03-24T10:01:43.901Z,26.20
2018-03-24T10:04:11.285Z,25.53
2018-03-24T10:06:38.664Z,22.70
2018-03-24T10:09:06.057Z,22.00
2018-03-24T10:11:33.441Z,24.63
2018-03-24T10:14:00.841Z,22.10
2018-03-24T10:16:28.213Z,21.20
2018-03-24T10:18:55.596Z,22.17
2018-03-24T10:24:26.676Z,23.30
2018-03-24T10:26:54.065Z,23.57
2018-03-24T10:29:21.452Z,23.03
2018-03-24T10:31:48.854Z,20.50
2018-03-24T10:34:16.232Z,18.03
2018-03-24T10:36:43.619Z,18.23
2018-03-24T10:39:11.009Z,17.70
2018-03-24T10:41:38.400Z,17.70
2018-03-24T10:44:05.794Z,17.80
2018-03-24T10:46:33.180Z,19.67
2018-03-24T10:49:00.565Z,18.27
2018-03-24T10:51:27.957Z,19.03
2018-03-24T10:53:55.337Z,19.27
2018-03-24T10:56:22.732Z,19.40
2018-03-24T10:58:50.112Z,19.30
2018-03-24T11:01:25.026Z,18.60
2018-03-24T11:03:52.412Z,18.67
2018-03-24T11:06:19.799Z,20.37
2018-03-24T11:08:47.188Z,16.93
2018-03-24T11:11:14.595Z,18.87
2018-03-24T11:13:41.968Z,18.70
2018-03-24T11:16:09.353Z,18.23
2018-03-24T11:18:36.732Z,17.90
2018-03-24T11:21:04.127Z,18.60
2018-03-24T11:23:31.527Z,17.37
2018-03-24T11:25:58.900Z,19.97
2018-03-24T11:28:26.296Z,20.27
2018-03-24T11:30:53.676Z,19.13
2018-03-24T11:33:21.064Z,18.37
2018-03-24T11:35:48.462Z,17.03
2018-03-24T11:38:15.888Z,18.00
2018-03-24T11:40:43.273Z,17.80
2018-03-24T11:43:10.669Z,16.33
2018-03-24T11:45:38.044Z,18.60
2018-03-24T11:48:05.444Z,18.27
2018-03-24T11:50:32.838Z,17.67
2018-03-24T11:53:00.224Z,17.20
2018-03-24T11:55:27.604Z,16.40
2018-03-24T11:57:54.993Z,17.20
2018-03-24T12:00:22.392Z,17.23
2018-03-24T12:02:49.768Z,18.83
2018-03-24T12:05:17.161Z,18.23
2018-03-24T12:07:44.549Z,18.80
2018-03-24T12:10:11.933Z,23.27
2018-03-24T12:12:39.340Z,19.33
2018-03-24T12:15:06.725Z,20.87
2018-03-24T12:17:34.129Z,18.57
2018-03-24T12:20:01.561Z,18.73
2018-03-24T12:22:29.040Z,18.37
2018-03-24T12:24:56.428Z,17.30
2018-03-24T12:27:23.837Z,17.20
2018-03-24T12:29:51.232Z,17.20
2018-03-24T12:32:18.620Z,17.10
2018-03-24T12:34:46.012Z,16.20
2018-03-24T12:37:13.401Z,16.23
2018-03-24T12:39:40.837Z,17.00
2018-03-24T12:42:08.203Z,17.20
2018-03-24T12:44:35.593Z,17.07
2018-03-24T12:47:02.976Z,16.00
2018-03-24T12:49:30.376Z,16.20
2018-03-24T12:51:57.756Z,16.03
2018-03-24T12:54:25.146Z,16.43
2018-03-24T12:56:52.532Z,16.97
2018-03-24T12:59:19.932Z,16.07
2018-03-24T13:01:47.320Z,16.30
2018-03-24T13:04:14.705Z,15.70
2018-03-24T13:06:42.106Z,16.33
2018-03-24T13:09:09.495Z,15.70
2018-03-24T13:11:36.876Z,15.53
2018-03-24T13:14:04.265Z,16.27
2018-03-24T13:16:31.657Z,16.57
2018-03-24T13:18:59.048Z,16.57
2018-03-24T13:21:26.436Z,16.27
2018-03-24T13:23:53.829Z,16.77
2018-03-24T13:26:21.213Z,16.10
2018-03-24T13:28:48.617Z,16.13
2018-03-24T13:31:16.005Z,16.87
2018-03-24T13:33:43.389Z,16.37
2018-03-24T13:36:10.781Z,15.97
2018-03-24T13:38:38.164Z,16.43
2018-03-24T13:41:05.565Z,17.70
2018-03-24T13:43:32.954Z,16.63
2018-03-24T13:46:00.343Z,16.43
2018-03-24T13:48:27.721Z,16.13
2018-03-24T13:50:55.120Z,17.33
2018-03-24T13:53:22.501Z,17.00
2018-03-24T13:55:49.884Z,16.03
2018-03-24T13:58:17.273Z,17.83
2018-03-24T14:00:44.661Z,17.03
2018-03-24T14:03:12.052Z,17.70
2018-03-24T14:05:40.462Z,17.33
2018-03-24T14:08:07.848Z,18.10
2018-03-24T14:10:35.253Z,19.97
2018-03-24T14:13:02.644Z,18.43
2018-03-24T14:15:30.040Z,18.00
2018-03-24T14:17:57.416Z,17.67
2018-03-24T14:20:24.808Z,18.90
2018-03-24T14:22:52.233Z,17.30
2018-03-24T14:25:19.622Z,18.10
2018-03-24T14:27:47.004Z,19.10
2018-03-24T14:30:14.400Z,17.93
2018-03-24T14:32:41.785Z,19.40
2018-03-24T14:35:09.177Z,19.23
2018-03-24T14:37:36.568Z,19.20
2018-03-24T14:40:03.965Z,18.73
2018-03-24T14:42:31.356Z,20.40
2018-03-24T14:44:58.744Z,18.47
2018-03-24T14:47:26.137Z,18.87
2018-03-24T14:49:53.520Z,19.20
2018-03-24T14:52:20.924Z,18.00
2018-03-24T14:54:48.317Z,19.87
2018-03-24T14:57:15.730Z,18.73
2018-03-24T14:59:43.136Z,19.07
2018-03-24T15:02:10.512Z,18.43
2018-03-24T15:04:37.912Z,20.33
2018-03-24T15:07:05.300Z,20.60
2018-03-24T15:09:32.693Z,19.00
2018-03-24T15:12:00.093Z,20.40
2018-03-24T15:14:27.488Z,19.13
2018-03-24T15:16:54.878Z,19.97
2018-03-24T15:19:22.273Z,20.53
2018-03-24T15:21:49.660Z,19.60
2018-03-24T15:24:17.040Z,21.10
2018-03-24T15:26:44.432Z,19.67
2018-03-24T15:29:23.653Z,20.40
2018-03-24T15:32:02.892Z,20.47
2018-03-24T15:34:42.038Z,19.57
2018-03-24T15:37:09.432Z,20.67
2018-03-24T15:39:36.821Z,22.37
2018-03-24T15:42:04.217Z,22.00
2018-03-24T15:44:31.593Z,19.53
2018-03-24T15:46:59.008Z,19.77
2018-03-24T15:49:26.390Z,20.73
2018-03-24T15:51:53.775Z,19.20
2018-03-24T15:54:21.168Z,18.77
2018-03-24T15:56:48.544Z,19.80
2018-03-24T15:59:15.938Z,20.67
2018-03-24T16:01:43.325Z,20.43
2018-03-24T16:04:10.725Z,20.13
2018-03-24T16:06:38.112Z,19.43
2018-03-24T16:09:05.505Z,19.57
2018-03-24T16:11:32.893Z,20.83
2018-03-24T16:14:00.278Z,20.97
2018-03-24T16:16:27.668Z,35.23
2018-03-24T16:18:55.083Z,21.57
2018-03-24T16:21:22.521Z,20.30
2018-03-24T16:23:49.901Z,21.23
2018-03-24T16:26:17.296Z,19.67
2018-03-24T16:28:44.685Z,20.03
2018-03-24T16:31:12.072Z,19.57
2018-03-24T16:33:39.464Z,20.40
2018-03-24T16:36:06.864Z,25.20
2018-03-24T16:38:34.287Z,23.83
2018-03-24T16:41:01.661Z,20.40
2018-03-24T16:43:29.072Z,20.90
2018-03-24T16:45:56.448Z,20.03
2018-03-24T16:48:23.838Z,24.90
2018-03-24T16:50:51.226Z,18.43
2018-03-24T16:53:18.653Z,19.37
2018-03-24T16:55:46.040Z,20.70
2018-03-24T16:58:13.431Z,18.93
2018-03-24T17:00:40.825Z,18.43
2018-03-24T17:03:08.229Z,18.00
2018-03-24T17:05:35.624Z,19.63
2018-03-24T17:08:04.037Z,18.63
2018-03-24T17:10:31.442Z,19.10
2018-03-24T17:12:59.160Z,17.80
2018-03-24T17:15:26.537Z,18.70
2018-03-24T17:17:54.230Z,20.90
2018-03-24T17:20:21.625Z,19.20
2018-03-24T17:22:49.016Z,19.73
2018-03-24T17:25:16.400Z,19.30
2018-03-24T17:27:43.793Z,18.90
2018-03-24T17:30:11.214Z,20.93
2018-03-24T17:32:38.632Z,19.00
2018-03-24T17:35:06.061Z,19.83
2018-03-24T17:37:33.442Z,20.97
2018-03-24T17:40:00.822Z,20.47
2018-03-24T17:42:28.211Z,19.27
2018-03-24T17:44:55.592Z,18.90
2018-03-24T17:47:22.982Z,20.03
2018-03-24T17:49:50.392Z,18.20
2018-03-24T17:52:17.769Z,19.47
2018-03-24T17:54:45.184Z,19.07
2018-03-24T17:57:12.576Z,19.00
2018-03-24T17:59:39.984Z,17.43
2018-03-24T18:02:07.384Z,21.93
2018-03-24T18:04:34.817Z,21.40
2018-03-24T18:07:02.221Z,22.90
2018-03-24T18:09:29.633Z,22.80
2018-03-24T18:11:57.029Z,20.90
2018-03-24T18:14:24.428Z,20.23
2018-03-24T18:16:51.813Z,22.00
2018-03-24T18:19:19.197Z,20.80
2018-03-24T18:21:46.588Z,21.80
2018-03-24T18:24:13.963Z,22.00
2018-03-24T18:26:41.361Z,21.33
2018-03-24T18:29:08.736Z,22.17
2018-03-24T18:31:36.123Z,20.23
2018-03-24T18:34:03.505Z,21.67
2018-03-24T18:36:30.893Z,22.40
2018-03-24T18:38:58.281Z,34.93
2018-03-24T18:41:25.684Z,28.37
2018-03-24T18:43:53.621Z,25.50
2018-03-24T18:46:21.000Z,22.60
2018-03-24T18:48:48.383Z,22.73
2018-03-24T18:51:15.795Z,21.80
2018-03-24T18:53:43.169Z,21.57
2018-03-24T18:56:10.549Z,20.77
2018-03-24T18:58:37.981Z,19.60
2018-03-24T19:01:05.365Z,20.27
2018-03-24T19:03:32.774Z,18.83
2018-03-24T19:06:00.157Z,20.13
2018-03-24T19:08:27.529Z,22.10
2018-03-24T19:10:54.934Z,24.77
2018-03-24T19:13:22.317Z,24.23
2018-03-24T19:15:49.706Z,24.83
2018-03-24T19:18:17.098Z,21.33
2018-03-24T19:20:44.479Z,20.70
2018-03-24T19:23:11.866Z,19.57
2018-03-24T19:25:39.257Z,18.63
2018-03-24T19:28:06.911Z,18.90
2018-03-24T19:30:34.284Z,20.50
2018-03-24T19:33:01.678Z,19.80
2018-03-24T19:35:29.058Z,21.13
2018-03-24T19:37:56.432Z,20.40
2018-03-24T19:40:23.834Z,21.00
2018-03-24T19:42:51.226Z,21.60
2018-03-24T19:45:18.609Z,21.67
2018-03-24T19:47:45.992Z,20.63
2018-03-24T19:50:13.372Z,22.77
2018-03-24T19:52:40.764Z,22.07
2018-03-24T19:55:08.151Z,21.97
2018-03-24T19:57:35.550Z,22.07
2018-03-24T20:00:03.012Z,21.03
2018-03-24T20:02:30.409Z,21.63
2018-03-24T20:04:57.810Z,22.70
2018-03-24T20:07:25.191Z,21.67
2018-03-24T20:09:52.564Z,20.90
2018-03-24T20:12:20.021Z,21.37
2018-03-24T20:14:47.400Z,21.93
2018-03-24T20:17:14.909Z,21.20
2018-03-24T20:19:42.545Z,22.47
2018-03-24T20:22:09.945Z,24.87
2018-03-24T20:24:37.322Z,21.03
2018-03-24T20:27:04.722Z,22.10
2018-03-24T20:29:32.104Z,21.47
2018-03-24T20:31:59.553Z,21.70
2018-03-24T20:34:27.820Z,22.10
2018-03-24T20:36:55.202Z,23.00
2018-03-24T20:39:22.600Z,21.80
2018-03-24T20:41:49.989Z,22.30
2018-03-24T20:44:17.372Z,21.17
2018-03-24T20:46:44.763Z,21.80
2018-03-24T20:49:12.144Z,21.97
2018-03-24T20:51:39.536Z,22.30
2018-03-24T20:54:07.303Z,22.77
2018-03-24T20:56:34.617Z,21.23
2018-03-24T20:59:02.021Z,22.17
2018-03-24T21:01:29.424Z,22.47
2018-03-24T21:03:56.778Z,22.00
2018-03-24T21:06:24.173Z,22.83
2018-03-24T21:08:51.557Z,22.53
2018-03-24T21:11:18.936Z,22.33
2018-03-24T21:13:46.325Z,22.33
2018-03-24T21:16:13.701Z,23.93
2018-03-24T21:18:41.079Z,23.80
2018-03-24T21:21:08.479Z,22.03
2018-03-24T21:23:35.855Z,22.30
2018-03-24T21:26:03.577Z,21.63
2018-03-24T21:28:30.952Z,23.30
2018-03-24T21:30:58.333Z,22.90
2018-03-24T21:33:25.720Z,23.97
2018-03-24T21:35:53.101Z,21.70
2018-03-24T21:38:20.512Z,24.57
2018-03-24T21:40:47.888Z,21.70
2018-03-24T21:43:15.268Z,21.80
2018-03-24T21:45:42.656Z,24.10
2018-03-24T21:48:10.040Z,25.00
2018-03-24T21:50:37.444Z,23.77
2018-03-24T21:53:04.817Z,24.67
2018-03-24T21:55:32.196Z,24.00
2018-03-24T21:57:59.596Z,23.00
2018-03-24T22:00:26.981Z,24.00
2018-03-24T22:02:54.396Z,25.20
2018-03-24T22:05:21.777Z,24.60
2018-03-24T22:07:49.156Z,25.20
2018-03-24T22:10:16.545Z,24.07
2018-03-24T22:12:43.933Z,23.40
2018-03-24T22:15:11.318Z,24.10
2018-03-24T22:17:38.697Z,23.63
2018-03-24T22:20:06.082Z,27.23
2018-03-24T22:22:33.530Z,23.63
2018-03-24T22:25:00.892Z,23.27
2018-03-24T22:27:28.278Z,22.73
2018-03-24T22:29:55.657Z,26.07
2018-03-24T22:32:23.048Z,23.90
2018-03-24T22:34:50.452Z,23.63
2018-03-24T22:37:17.833Z,22.47
2018-03-24T22:39:45.307Z,24.67
2018-03-24T22:42:12.613Z,24.50
2018-03-24T22:44:40.006Z,23.87
2018-03-24T22:47:07.392Z,23.13
2018-03-24T22:49:34.769Z,23.50
2018-03-24T22:52:02.157Z,25.23
2018-03-24T22:54:29.549Z,23.37
2018-03-24T22:56:56.941Z,24.47
2018-03-24T22:59:24.334Z,23.00
2018-03-24T23:01:51.711Z,22.43
2018-03-24T23:04:19.088Z,22.50
2018-03-24T23:06:46.468Z,21.10
2018-03-24T23:09:13.860Z,22.00
2018-03-24T23:11:41.301Z,20.57
2018-03-24T23:14:08.621Z,19.97
2018-03-24T23:16:36.021Z,21.57
2018-03-24T23:19:03.393Z,21.37
2018-03-24T23:21:30.789Z,22.60
2018-03-24T23:23:58.169Z,21.10
2018-03-24T23:26:25.553Z,22.27
2018-03-24T23:28:52.958Z,23.87
2018-03-24T23:31:20.333Z,23.60
2018-03-24T23:33:47.736Z,23.73
2018-03-24T23:36:15.110Z,23.50
2018-03-24T23:38:42.488Z,24.03
2018-03-24T23:41:09.877Z,22.97
2018-03-24T23:43:37.256Z,24.63
2018-03-24T23:46:04.655Z,23.07
2018-03-24T23:48:32.029Z,23.03
2018-03-24T23:50:59.408Z,25.37
2018-03-24T23:53:26.795Z,24.80
2018-03-24T23:55:54.175Z,25.67
2018-03-24T23:58:21.566Z,25.27
